Time;durP1;ratioP1;P1;durP2;ratioP2;P2;SDS_P1;SDS_P2;PMS_P1;PMS_P2;Temp;Humidity;BMP_temperature;BMP_pressure;BME280_temperature;BME280_humidity;BME280_pressure;Samples;Min_cycle;Max_cycle;Signal;HPM_P1;HPM_P2
2021/03/22 00:02:21;;;;;;;36.90;16.93;;;;;;;;;;6197148;23;20171;-91
2021/03/22 00:05:26;;;;;;;34.23;16.23;;;;;;;;;;6196929;22;20211;-91
2021/03/22 00:08:30;;;;;;;36.10;16.90;;;;;;;;;;6198870;23;20152;-91
2021/03/22 00:11:35;;;;;;;36.27;17.43;;;;;;;;;;6197426;23;20179;-91
2021/03/22 00:14:40;;;;;;;34.67;16.40;;;;;;;;;;6199483;22;20223;-93
2021/03/22 00:17:46;;;;;;;40.80;17.90;;;;;;;;;;6199683;23;20191;-91
2021/03/22 00:20:53;;;;;;;40.60;17.57;;;;;;;;;;6199764;23;20167;-91
2021/03/22 00:23:57;;;;;;;39.63;17.90;;;;;;;;;;6199129;22;20179;-91
2021/03/22 00:27:02;;;;;;;39.37;17.60;;;;;;;;;;6197815;23;20573;-92
2021/03/22 00:30:08;;;;;;;37.33;17.43;;;;;;;;;;6201804;23;20187;-91
2021/03/22 00:33:14;;;;;;;50.67;21.83;;;;;;;;;;6198536;23;20167;-91
2021/03/22 00:36:18;;;;;;;40.13;17.93;;;;;;;;;;6205409;22;20186;-91
2021/03/22 00:39:26;;;;;;;35.00;16.73;;;;;;;;;;6207885;22;20646;-91
2021/03/22 00:42:31;;;;;;;38.13;17.23;;;;;;;;;;6207876;23;20240;-91
2021/03/22 00:45:36;;;;;;;35.20;17.33;;;;;;;;;;6207444;23;20191;-91
2021/03/22 00:48:41;;;;;;;35.00;17.07;;;;;;;;;;6206995;23;20167;-90
2021/03/22 00:51:46;;;;;;;33.57;16.60;;;;;;;;;;6207815;23;20170;-90
2021/03/22 00:54:52;;;;;;;35.87;16.77;;;;;;;;;;6206713;23;20187;-91
2021/03/22 00:57:57;;;;;;;37.17;16.40;;;;;;;;;;6208044;23;20267;-90
2021/03/22 01:01:01;;;;;;;39.53;16.90;;;;;;;;;;6206375;23;20167;-91
2021/03/22 01:04:07;;;;;;;36.73;17.33;;;;;;;;;;6206306;23;20171;-91
2021/03/22 01:07:12;;;;;;;36.17;16.47;;;;;;;;;;6206556;23;20171;-91
2021/03/22 01:10:24;;;;;;;34.67;17.27;;;;;;;;;;6205595;23;20282;-91
2021/03/22 01:13:30;;;;;;;38.00;17.47;;;;;;;;;;6206129;23;20160;-91
2021/03/22 01:16:36;;;;;;;41.20;18.50;;;;;;;;;;6205619;23;20195;-90
2021/03/22 01:19:41;;;;;;;42.27;17.93;;;;;;;;;;6206065;23;20619;-91
2021/03/22 01:22:46;;;;;;;38.13;16.50;;;;;;;;;;6206345;23;20241;-92
2021/03/22 01:25:51;;;;;;;36.63;17.33;;;;;;;;;;6205114;23;20250;-90
2021/03/22 01:28:56;;;;;;;49.57;21.47;;;;;;;;;;6208547;23;20986;-91
2021/03/22 01:32:01;;;;;;;37.27;17.60;;;;;;;;;;6208235;23;20167;-93
2021/03/22 01:35:07;;;;;;;39.47;18.17;;;;;;;;;;6209301;23;20175;-91
2021/03/22 01:38:11;;;;;;;37.43;17.70;;;;;;;;;;6179033;23;20195;-91
2021/03/22 01:41:24;;;;;;;42.70;18.30;;;;;;;;;;6195889;23;20235;-92
2021/03/22 01:44:30;;;;;;;39.50;17.73;;;;;;;;;;6197134;23;20569;-90
2021/03/22 01:47:35;;;;;;;43.23;19.20;;;;;;;;;;6179332;23;20168;-91
2021/03/22 01:50:41;;;;;;;35.87;17.87;;;;;;;;;;6178777;23;20184;-90
2021/03/22 01:53:45;;;;;;;47.30;20.00;;;;;;;;;;6195433;23;20171;-91
2021/03/22 01:56:52;;;;;;;41.70;19.13;;;;;;;;;;6196085;23;20172;-91
2021/03/22 02:00:02;;;;;;;40.03;18.73;;;;;;;;;;6195815;23;20303;-92
2021/03/22 02:03:11;;;;;;;41.13;18.80;;;;;;;;;;6179391;23;20199;-92
2021/03/22 02:06:17;;;;;;;40.47;19.00;;;;;;;;;;6195753;23;20227;-90
2021/03/22 02:09:22;;;;;;;40.67;19.60;;;;;;;;;;6197316;23;20550;-92
2021/03/22 02:12:28;;;;;;;39.23;18.17;;;;;;;;;;6197453;23;20219;-90
2021/03/22 02:15:33;;;;;;;39.37;18.03;;;;;;;;;;6197013;23;20483;-90
2021/03/22 02:18:44;;;;;;;38.83;18.80;;;;;;;;;;6199545;22;20199;-91
2021/03/22 02:22:08;;;;;;;52.73;21.97;;;;;;;;;;6181639;23;20172;-90
2021/03/22 02:25:21;;;;;;;43.20;18.63;;;;;;;;;;6198273;23;20188;-90
2021/03/22 02:28:52;;;;;;;42.90;19.13;;;;;;;;;;6197032;23;20192;-91
2021/03/22 02:32:09;;;;;;;47.37;20.20;;;;;;;;;;6196209;23;20522;-92
2021/03/22 02:35:18;;;;;;;42.53;19.17;;;;;;;;;;6195334;23;20548;-91
2021/03/22 02:38:25;;;;;;;39.90;18.43;;;;;;;;;;6179240;23;20212;-92
2021/03/22 02:41:32;;;;;;;41.00;18.83;;;;;;;;;;6179032;23;20193;-91
2021/03/22 02:44:38;;;;;;;41.73;19.67;;;;;;;;;;6179786;23;20167;-91
2021/03/22 02:47:43;;;;;;;50.40;20.93;;;;;;;;;;6178799;23;20649;-90
2021/03/22 02:50:52;;;;;;;44.50;19.43;;;;;;;;;;6179485;23;20477;-92
2021/03/22 02:54:00;;;;;;;39.73;19.03;;;;;;;;;;6179405;23;20187;-90
2021/03/22 02:57:06;;;;;;;43.17;19.03;;;;;;;;;;6179229;23;20175;-91
2021/03/22 03:00:12;;;;;;;42.77;18.60;;;;;;;;;;6180586;22;20176;-93
2021/03/22 03:03:19;;;;;;;41.07;19.30;;;;;;;;;;6180310;22;20608;-90
2021/03/22 03:06:41;;;;;;;41.57;18.73;;;;;;;;;;6181283;23;20208;-91
2021/03/22 03:09:45;;;;;;;40.67;18.40;;;;;;;;;;6179568;23;20185;-91
2021/03/22 03:12:50;;;;;;;39.23;18.60;;;;;;;;;;6179765;23;20159;-92
2021/03/22 03:15:54;;;;;;;48.80;20.27;;;;;;;;;;6180611;23;20201;-91
2021/03/22 03:18:59;;;;;;;42.13;18.07;;;;;;;;;;6180571;23;20195;-92
2021/03/22 03:22:06;;;;;;;45.07;18.57;;;;;;;;;;6181982;23;20196;-92
2021/03/22 03:25:11;;;;;;;41.00;17.80;;;;;;;;;;6180928;23;20192;-91
2021/03/22 03:28:16;;;;;;;38.90;16.50;;;;;;;;;;6181010;23;20168;-90
2021/03/22 03:31:20;;;;;;;38.80;17.17;;;;;;;;;;6180482;23;20220;-92
2021/03/22 03:34:25;;;;;;;42.43;17.30;;;;;;;;;;6180020;23;20237;-90
2021/03/22 03:37:33;;;;;;;42.33;17.27;;;;;;;;;;6212812;23;20206;-91
2021/03/22 03:40:39;;;;;;;34.97;16.37;;;;;;;;;;6226985;23;20670;-93
2021/03/22 03:43:44;;;;;;;36.80;16.03;;;;;;;;;;6227346;23;20182;-90
2021/03/22 03:46:49;;;;;;;36.97;16.50;;;;;;;;;;6226921;23;20219;-91
2021/03/22 03:49:54;;;;;;;33.77;14.60;;;;;;;;;;6227825;23;20685;-91
2021/03/22 03:52:59;;;;;;;35.30;14.30;;;;;;;;;;6227392;23;20180;-90
2021/03/22 03:56:04;;;;;;;34.00;14.10;;;;;;;;;;6228023;23;20226;-90
2021/03/22 03:59:09;;;;;;;35.90;13.00;;;;;;;;;;6226929;23;20190;-91
2021/03/22 04:02:14;;;;;;;39.47;14.03;;;;;;;;;;6228436;23;20222;-92
2021/03/22 04:05:19;;;;;;;33.53;12.97;;;;;;;;;;6227420;23;20190;-91
2021/03/22 04:08:25;;;;;;;35.93;12.93;;;;;;;;;;6226454;22;20175;-90
2021/03/22 04:11:31;;;;;;;27.33;10.97;;;;;;;;;;6227197;22;20214;-91
2021/03/22 04:14:36;;;;;;;29.87;10.73;;;;;;;;;;6225974;23;20207;-89
2021/03/22 04:17:41;;;;;;;33.23;9.90;;;;;;;;;;6226968;22;20207;-91
2021/03/22 04:20:45;;;;;;;26.80;9.27;;;;;;;;;;6226534;23;20167;-90
2021/03/22 04:23:51;;;;;;;25.43;8.93;;;;;;;;;;6226431;23;20175;-90
2021/03/22 04:26:57;;;;;;;33.73;9.17;;;;;;;;;;6225976;23;20211;-90
2021/03/22 04:30:02;;;;;;;26.37;7.57;;;;;;;;;;6225158;22;20187;-90
2021/03/22 04:33:07;;;;;;;33.17;8.60;;;;;;;;;;6225789;23;20214;-91
2021/03/22 04:36:11;;;;;;;27.30;7.53;;;;;;;;;;6225760;23;20211;-90
2021/03/22 04:39:17;;;;;;;20.83;7.30;;;;;;;;;;6208799;23;20218;-90
2021/03/22 04:42:21;;;;;;;26.60;7.53;;;;;;;;;;6209675;23;20170;-91
2021/03/22 04:45:28;;;;;;;29.00;6.67;;;;;;;;;;6209020;23;20166;-92
2021/03/22 04:48:32;;;;;;;28.17;6.67;;;;;;;;;;6209157;23;20187;-90
2021/03/22 04:51:36;;;;;;;30.93;6.30;;;;;;;;;;6208898;22;20172;-91
2021/03/22 04:54:42;;;;;;;25.60;6.33;;;;;;;;;;6209629;23;20211;-90
2021/03/22 04:57:46;;;;;;;21.17;6.53;;;;;;;;;;6209594;23;20199;-89
2021/03/22 05:05:00;;;;;;;29.17;6.17;;;;;;;;;;6210727;23;20183;-90
2021/03/22 05:08:05;;;;;;;24.77;5.77;;;;;;;;;;6210664;23;20162;-90
2021/03/22 05:11:12;;;;;;;28.53;6.23;;;;;;;;;;6211335;23;20167;-90
2021/03/22 05:14:16;;;;;;;24.63;6.03;;;;;;;;;;6211591;23;20175;-91
2021/03/22 05:17:21;;;;;;;30.43;5.47;;;;;;;;;;6211902;23;20214;-90
2021/03/22 05:20:28;;;;;;;25.83;6.13;;;;;;;;;;6211313;23;20254;-91
2021/03/22 05:23:33;;;;;;;24.30;5.80;;;;;;;;;;6211419;23;20247;-91
2021/03/22 05:26:39;;;;;;;27.40;6.00;;;;;;;;;;6210202;23;20171;-91
2021/03/22 05:29:43;;;;;;;32.47;5.90;;;;;;;;;;6211338;23;20187;-90
2021/03/22 05:32:48;;;;;;;28.77;5.40;;;;;;;;;;6211803;23;20166;-91
2021/03/22 05:35:56;;;;;;;25.47;5.50;;;;;;;;;;6231216;23;20175;-92
2021/03/22 05:39:01;;;;;;;25.67;5.50;;;;;;;;;;6211663;23;20701;-91
2021/03/22 05:42:12;;;;;;;26.50;5.40;;;;;;;;;;6214702;23;20159;-91
2021/03/22 05:45:37;;;;;;;25.57;4.87;;;;;;;;;;6213045;23;20172;-90
2021/03/22 05:49:06;;;;;;;24.73;5.00;;;;;;;;;;6213788;22;20171;-90
2021/03/22 05:52:27;;;;;;;30.17;4.80;;;;;;;;;;6231165;23;20265;-90
2021/03/22 05:55:50;;;;;;;24.60;4.77;;;;;;;;;;6212943;23;20175;-90
2021/03/22 05:59:02;;;;;;;23.77;4.77;;;;;;;;;;6211236;23;20190;-91
2021/03/22 06:02:11;;;;;;;29.43;4.60;;;;;;;;;;6212209;23;20247;-91
2021/03/22 06:05:23;;;;;;;22.83;5.20;;;;;;;;;;6213021;23;20294;-90
2021/03/22 06:08:32;;;;;;;27.03;5.63;;;;;;;;;;6211421;23;20172;-90
2021/03/22 06:11:52;;;;;;;26.87;5.40;;;;;;;;;;6210161;23;20167;-89
2021/03/22 06:15:00;;;;;;;27.33;5.80;;;;;;;;;;6211834;22;20835;-90
2021/03/22 06:18:10;;;;;;;24.83;4.57;;;;;;;;;;6212257;23;20214;-90
2021/03/22 06:21:16;;;;;;;22.53;4.53;;;;;;;;;;6210956;23;20172;-89
2021/03/22 06:24:22;;;;;;;33.47;7.43;;;;;;;;;;6211522;23;20191;-91
2021/03/22 06:27:27;;;;;;;22.57;5.00;;;;;;;;;;6210879;23;20167;-91
2021/03/22 06:30:33;;;;;;;28.53;5.23;;;;;;;;;;6211823;22;20242;-90
2021/03/22 06:33:39;;;;;;;24.73;5.27;;;;;;;;;;6211600;23;20175;-90
2021/03/22 06:36:43;;;;;;;25.97;5.00;;;;;;;;;;6213907;23;20214;-89
2021/03/22 06:39:49;;;;;;;25.33;5.57;;;;;;;;;;6231072;23;20242;-90
2021/03/22 06:43:04;;;;;;;26.93;4.77;;;;;;;;;;6230889;23;20175;-90
2021/03/22 06:46:10;;;;;;;19.13;4.60;;;;;;;;;;6232379;23;20183;-90
2021/03/22 06:49:23;;;;;;;27.67;5.77;;;;;;;;;;6232010;23;20195;-90
2021/03/22 06:52:38;;;;;;;20.50;5.40;;;;;;;;;;6229289;23;20220;-90
2021/03/22 06:55:43;;;;;;;22.60;5.47;;;;;;;;;;6228367;23;20171;-90
2021/03/22 06:58:49;;;;;;;22.57;5.17;;;;;;;;;;6230081;23;20194;-90
2021/03/22 07:01:54;;;;;;;28.10;5.27;;;;;;;;;;6227937;23;20195;-89
2021/03/22 07:05:00;;;;;;;24.13;5.87;;;;;;;;;;6231077;23;20171;-90
2021/03/22 07:08:07;;;;;;;19.83;4.80;;;;;;;;;;6232827;22;20191;-90
2021/03/22 07:11:13;;;;;;;29.37;7.13;;;;;;;;;;6231266;22;20167;-89
2021/03/22 07:14:23;;;;;;;38.70;6.67;;;;;;;;;;6230289;22;20151;-90
2021/03/22 07:17:29;;;;;;;31.63;5.10;;;;;;;;;;6230656;23;20214;-90
2021/03/22 07:20:34;;;;;;;24.33;5.57;;;;;;;;;;6230302;22;20174;-91
2021/03/22 07:23:47;;;;;;;31.43;5.53;;;;;;;;;;6229026;22;20270;-91
2021/03/22 07:26:55;;;;;;;22.37;5.37;;;;;;;;;;6229372;23;20187;-91
2021/03/22 07:30:04;;;;;;;27.93;6.57;;;;;;;;;;6229582;23;20220;-90
2021/03/22 07:33:21;;;;;;;20.57;5.30;;;;;;;;;;6230666;23;20167;-91
2021/03/22 07:36:33;;;;;;;26.33;5.07;;;;;;;;;;6229192;23;20207;-90
2021/03/22 07:39:43;;;;;;;27.40;5.30;;;;;;;;;;6211018;23;20194;-90
2021/03/22 07:42:58;;;;;;;27.83;5.97;;;;;;;;;;6212253;23;20199;-91
2021/03/22 07:46:08;;;;;;;21.60;5.17;;;;;;;;;;6212549;23;20782;-90
2021/03/22 07:49:27;;;;;;;25.50;5.83;;;;;;;;;;6212701;23;20175;-90
2021/03/22 07:52:35;;;;;;;18.90;4.80;;;;;;;;;;6210294;23;20167;-90
2021/03/22 07:55:49;;;;;;;22.17;5.17;;;;;;;;;;6209680;22;20155;-90
2021/03/22 07:59:03;;;;;;;26.90;5.90;;;;;;;;;;6216295;23;20198;-90
2021/03/22 08:16:19;;;;;;;23.43;5.73;;;;;;;;;;6215748;23;20163;-91
2021/03/22 08:22:51;;;;;;;19.80;6.50;;;;;;;;;;6215951;23;20163;-91
2021/03/22 08:26:01;;;;;;;24.63;5.90;;;;;;;;;;6214470;23;20171;-92
2021/03/22 08:47:49;;;;;;;24.77;8.40;;;;;;;;;;6183230;22;20223;-91
2021/03/22 10:48:28;;;;;;;17.20;4.30;;;;;;;;;;6170156;22;20639;-92
2021/03/22 10:51:37;;;;;;;16.83;4.23;;;;;;;;;;6229908;23;20274;-92
2021/03/22 10:54:44;;;;;;;12.70;4.57;;;;;;;;;;6229646;23;20171;-91
2021/03/22 10:57:49;;;;;;;14.43;4.25;;;;;;;;;;6227575;23;20163;-90
2021/03/22 11:00:58;;;;;;;15.05;4.68;;;;;;;;;;6229572;23;20175;-91
2021/03/22 11:04:05;;;;;;;14.32;4.28;;;;;;;;;;6211716;23;20259;-90
2021/03/22 11:07:12;;;;;;;17.25;4.55;;;;;;;;;;6229755;23;20179;-92
2021/03/22 11:10:19;;;;;;;13.50;4.18;;;;;;;;;;6231209;22;20167;-90
2021/03/22 11:13:27;;;;;;;9.43;4.05;;;;;;;;;;6234323;23;20166;-90
2021/03/22 11:16:34;;;;;;;16.45;4.05;;;;;;;;;;6232110;23;20160;-90
2021/03/22 11:19:44;;;;;;;20.83;4.70;;;;;;;;;;6234670;23;20199;-90
2021/03/22 11:22:50;;;;;;;14.07;4.10;;;;;;;;;;6216258;23;20163;-90
2021/03/22 11:25:55;;;;;;;22.63;5.20;;;;;;;;;;6235873;22;20191;-92
2021/03/22 11:29:19;;;;;;;17.03;4.23;;;;;;;;;;6235032;22;20171;-91
2021/03/22 11:32:26;;;;;;;20.87;4.13;;;;;;;;;;6233098;23;20190;-92
2021/03/22 11:35:32;;;;;;;16.47;3.80;;;;;;;;;;6232286;23;20166;-90
2021/03/22 11:38:43;;;;;;;16.10;4.47;;;;;;;;;;6230751;23;20187;-90
2021/03/22 11:42:02;;;;;;;16.37;4.40;;;;;;;;;;6213234;23;20178;-92
2021/03/22 11:45:25;;;;;;;20.27;4.30;;;;;;;;;;6229270;23;20198;-89
2021/03/22 11:48:32;;;;;;;13.20;3.90;;;;;;;;;;6232451;23;20195;-91
2021/03/22 11:51:49;;;;;;;16.60;4.17;;;;;;;;;;6227344;23;20183;-90
2021/03/22 11:55:17;;;;;;;12.83;3.60;;;;;;;;;;6229300;22;20231;-88
2021/03/22 11:58:29;;;;;;;15.03;3.80;;;;;;;;;;6213483;23;20216;-91
2021/03/22 12:01:35;;;;;;;14.03;3.83;;;;;;;;;;6231307;23;20175;-92
2021/03/22 12:04:40;;;;;;;19.67;4.00;;;;;;;;;;6229852;23;20219;-91
2021/03/22 12:07:47;;;;;;;28.23;5.20;;;;;;;;;;6230732;23;20171;-91
2021/03/22 12:10:52;;;;;;;24.47;4.70;;;;;;;;;;6213186;22;20171;-91
2021/03/22 12:13:58;;;;;;;14.13;3.87;;;;;;;;;;6231752;23;20673;-91
2021/03/22 13:39:13;;;;;;;8.57;2.80;;;;;;;;;;6208832;22;20215;-89
2021/03/22 13:42:21;;;;;;;14.37;3.70;;;;;;;;;;6233497;23;20214;-90
2021/03/22 13:45:26;;;;;;;17.77;3.03;;;;;;;;;;6233791;23;20184;-89
2021/03/22 13:48:31;;;;;;;14.13;3.33;;;;;;;;;;6215310;23;20196;-89
2021/03/22 13:51:38;;;;;;;14.80;3.03;;;;;;;;;;6216000;23;20223;-90
2021/03/22 13:54:44;;;;;;;17.30;3.20;;;;;;;;;;6232860;23;20183;-90
2021/03/22 13:57:49;;;;;;;8.67;2.00;;;;;;;;;;6233720;23;20175;-90
2021/03/22 14:00:54;;;;;;;6.83;2.40;;;;;;;;;;6233710;23;20178;-90
2021/03/22 14:03:59;;;;;;;13.10;2.30;;;;;;;;;;6235249;23;20191;-90
2021/03/22 14:07:08;;;;;;;8.23;2.10;;;;;;;;;;6235444;22;20167;-91
2021/03/22 14:10:16;;;;;;;10.52;2.22;;;;;;;;;;6216947;22;20171;-92
2021/03/22 17:18:11;;;;;;;10.53;3.60;;;;;;;;;;6171252;23;20235;-91
2021/03/22 17:21:15;;;;;;;10.43;2.97;;;;;;;;;;6154301;23;20172;-90
2021/03/22 17:24:20;;;;;;;13.07;3.00;;;;;;;;;;6151221;23;20245;-90
2021/03/22 17:27:24;;;;;;;14.03;2.93;;;;;;;;;;6153773;23;20164;-87
2021/03/22 17:30:30;;;;;;;18.93;3.60;;;;;;;;;;6153591;23;20312;-88
2021/03/22 17:33:36;;;;;;;19.30;3.03;;;;;;;;;;6154476;23;20253;-88
2021/03/22 17:36:41;;;;;;;15.77;3.40;;;;;;;;;;6153274;23;20164;-88
2021/03/22 17:39:46;;;;;;;15.07;3.63;;;;;;;;;;6154927;23;20197;-89
2021/03/22 17:42:51;;;;;;;13.87;3.00;;;;;;;;;;6169243;23;20220;-89
2021/03/22 17:45:56;;;;;;;14.53;3.77;;;;;;;;;;6153693;23;20176;-89
2021/03/22 17:49:01;;;;;;;10.30;2.93;;;;;;;;;;6155818;23;20180;-89
2021/03/22 17:52:07;;;;;;;12.70;3.30;;;;;;;;;;6169466;23;20186;-88
2021/03/22 17:55:12;;;;;;;11.63;3.17;;;;;;;;;;6152510;23;20237;-88
2021/03/22 17:58:17;;;;;;;14.13;3.10;;;;;;;;;;6169980;23;20216;-89
2021/03/22 18:01:22;;;;;;;13.60;3.30;;;;;;;;;;6151776;23;20239;-88
2021/03/22 18:04:27;;;;;;;14.13;3.20;;;;;;;;;;6152617;23;20225;-89
2021/03/22 18:07:32;;;;;;;14.10;3.27;;;;;;;;;;6153367;23;20193;-90
2021/03/22 18:10:41;;;;;;;16.73;3.33;;;;;;;;;;6154986;23;20275;-89
2021/03/22 18:13:46;;;;;;;14.80;3.80;;;;;;;;;;6153695;23;20172;-91
2021/03/22 18:16:51;;;;;;;14.20;3.70;;;;;;;;;;6156827;23;20199;-90
2021/03/22 18:19:58;;;;;;;16.20;3.73;;;;;;;;;;6172750;23;20243;-90
2021/03/22 18:23:03;;;;;;;21.47;4.10;;;;;;;;;;6170405;23;20196;-88
2021/03/22 18:26:07;;;;;;;16.40;4.33;;;;;;;;;;6169238;23;20176;-90
2021/03/22 18:29:12;;;;;;;15.83;3.93;;;;;;;;;;6169169;23;20218;-89
2021/03/22 18:32:18;;;;;;;17.13;4.37;;;;;;;;;;6169666;23;20195;-87
2021/03/22 18:35:26;;;;;;;16.63;4.07;;;;;;;;;;6168153;23;20169;-88
2021/03/22 18:38:31;;;;;;;18.03;5.03;;;;;;;;;;6170571;23;20648;-88
2021/03/22 18:41:35;;;;;;;20.50;4.50;;;;;;;;;;6169595;23;20225;-89
2021/03/22 18:44:40;;;;;;;16.00;4.13;;;;;;;;;;6168197;23;20195;-88
2021/03/22 18:47:45;;;;;;;13.90;4.00;;;;;;;;;;6167313;23;20176;-87
2021/03/22 18:50:51;;;;;;;18.97;5.47;;;;;;;;;;6169390;23;20192;-88
2021/03/22 18:53:55;;;;;;;22.47;4.83;;;;;;;;;;6168282;23;20516;-88
2021/03/22 18:57:00;;;;;;;13.90;4.43;;;;;;;;;;6168022;23;20196;-88
2021/03/22 19:00:08;;;;;;;38.57;4.87;;;;;;;;;;6170273;23;20253;-89
2021/03/22 19:03:13;;;;;;;14.63;4.47;;;;;;;;;;6168963;23;20169;-89
2021/03/22 19:06:20;;;;;;;23.80;5.00;;;;;;;;;;6170165;23;20223;-90
2021/03/22 19:09:25;;;;;;;18.00;5.70;;;;;;;;;;6170854;23;20527;-89
2021/03/22 19:12:33;;;;;;;22.10;5.20;;;;;;;;;;6170372;23;20164;-90
2021/03/22 19:15:39;;;;;;;19.37;6.10;;;;;;;;;;6170107;23;20173;-89
2021/03/22 19:18:45;;;;;;;17.20;5.27;;;;;;;;;;6170356;23;20192;-87
2021/03/22 19:21:51;;;;;;;27.80;7.17;;;;;;;;;;6169248;23;20196;-89
2021/03/22 19:24:56;;;;;;;25.77;5.57;;;;;;;;;;6169123;23;20168;-88
2021/03/22 19:28:00;;;;;;;17.13;4.47;;;;;;;;;;6169442;23;20175;-90
2021/03/22 19:31:06;;;;;;;18.10;5.43;;;;;;;;;;6169768;23;20203;-89
2021/03/22 19:34:11;;;;;;;22.67;5.30;;;;;;;;;;6169073;23;20220;-89
2021/03/22 19:37:17;;;;;;;38.97;12.00;;;;;;;;;;6168043;23;20507;-90
2021/03/22 19:40:22;;;;;;;21.10;5.33;;;;;;;;;;6166727;23;20251;-88
2021/03/22 19:43:28;;;;;;;13.40;4.23;;;;;;;;;;6166954;23;20227;-90
2021/03/22 19:46:33;;;;;;;19.33;4.43;;;;;;;;;;6166131;23;20678;-88
2021/03/22 19:49:37;;;;;;;16.80;4.40;;;;;;;;;;6164328;23;20172;-89
2021/03/22 19:52:43;;;;;;;21.77;5.80;;;;;;;;;;6166397;23;20192;-88
2021/03/22 19:55:48;;;;;;;18.03;5.03;;;;;;;;;;6166857;23;20189;-88
2021/03/22 19:58:53;;;;;;;18.00;5.30;;;;;;;;;;6166884;23;20195;-88
2021/03/22 20:01:58;;;;;;;20.60;5.73;;;;;;;;;;6166580;23;20171;-89
2021/03/22 20:05:02;;;;;;;15.27;5.00;;;;;;;;;;6166486;23;20515;-87
2021/03/22 20:08:10;;;;;;;25.77;6.17;;;;;;;;;;6166485;23;20191;-87
2021/03/22 20:11:14;;;;;;;20.50;6.30;;;;;;;;;;6166717;23;20172;-88
2021/03/22 20:14:19;;;;;;;25.30;6.47;;;;;;;;;;6167476;23;20172;-88
2021/03/22 20:17:24;;;;;;;16.53;5.70;;;;;;;;;;6168032;23;20192;-91
2021/03/22 20:20:32;;;;;;;14.77;5.37;;;;;;;;;;6150532;23;20232;-91
2021/03/22 20:23:38;;;;;;;25.17;5.70;;;;;;;;;;6149759;23;20220;-89
2021/03/22 20:26:42;;;;;;;20.60;5.50;;;;;;;;;;6151193;23;20172;-89
2021/03/22 20:29:47;;;;;;;22.03;5.60;;;;;;;;;;6150405;23;20168;-88
2021/03/22 20:32:52;;;;;;;21.53;5.83;;;;;;;;;;6150210;23;20243;-88
2021/03/22 20:35:57;;;;;;;19.83;4.30;;;;;;;;;;6149185;23;20224;-89
2021/03/22 20:39:03;;;;;;;19.50;4.13;;;;;;;;;;6149103;23;20196;-88
2021/03/22 20:42:08;;;;;;;18.73;4.40;;;;;;;;;;6149437;23;20204;-89
2021/03/22 20:45:13;;;;;;;21.00;4.77;;;;;;;;;;6166680;23;20159;-89
2021/03/22 20:48:17;;;;;;;19.00;4.47;;;;;;;;;;6150264;23;20172;-89
2021/03/22 20:51:22;;;;;;;13.47;4.10;;;;;;;;;;6150034;23;20180;-88
2021/03/22 20:54:28;;;;;;;14.83;4.20;;;;;;;;;;6148742;23;20217;-89
2021/03/22 20:57:32;;;;;;;18.00;4.63;;;;;;;;;;6149663;23;20172;-89
2021/03/22 21:00:38;;;;;;;17.20;4.70;;;;;;;;;;6149362;23;20623;-89
2021/03/22 21:03:43;;;;;;;24.93;4.93;;;;;;;;;;6148682;23;20176;-87
2021/03/22 21:06:48;;;;;;;18.13;4.73;;;;;;;;;;6148213;23;20241;-88
2021/03/22 21:09:54;;;;;;;15.77;4.27;;;;;;;;;;6147404;23;20173;-90
2021/03/22 21:12:58;;;;;;;20.23;4.50;;;;;;;;;;6147874;23;20714;-88
2021/03/22 21:16:02;;;;;;;20.07;4.77;;;;;;;;;;6149098;23;20453;-89
2021/03/22 21:19:07;;;;;;;16.63;4.63;;;;;;;;;;6147693;23;20231;-87
2021/03/22 21:22:12;;;;;;;20.30;4.77;;;;;;;;;;6146836;23;20172;-89
2021/03/22 21:25:18;;;;;;;16.53;3.93;;;;;;;;;;6146729;23;20181;-90
2021/03/22 21:28:24;;;;;;;15.97;3.97;;;;;;;;;;6146621;23;20176;-90
2021/03/22 21:31:30;;;;;;;20.23;4.40;;;;;;;;;;6147515;23;20220;-90
2021/03/22 21:34:34;;;;;;;17.50;4.03;;;;;;;;;;6147290;23;20168;-89
2021/03/22 21:37:39;;;;;;;24.53;5.37;;;;;;;;;;6147267;23;20219;-89
2021/03/22 21:40:45;;;;;;;21.87;4.77;;;;;;;;;;6164088;23;20263;-89
2021/03/22 21:43:50;;;;;;;20.70;4.33;;;;;;;;;;6146718;23;20245;-89
2021/03/22 21:46:54;;;;;;;24.27;5.03;;;;;;;;;;6147696;23;20196;-87
2021/03/22 21:49:59;;;;;;;15.33;4.20;;;;;;;;;;6148501;23;20608;-90
2021/03/22 21:53:05;;;;;;;19.63;4.23;;;;;;;;;;6147890;23;20181;-88
2021/03/22 21:56:11;;;;;;;22.27;4.40;;;;;;;;;;6148494;23;20172;-89
2021/03/22 21:59:15;;;;;;;17.93;4.20;;;;;;;;;;6149237;23;20196;-88
2021/03/22 22:02:20;;;;;;;16.00;3.83;;;;;;;;;;6147283;23;20204;-87
2021/03/22 22:05:25;;;;;;;19.47;3.70;;;;;;;;;;6148460;23;20180;-89
2021/03/22 22:08:30;;;;;;;23.37;4.97;;;;;;;;;;6147641;23;20216;-88
2021/03/22 22:11:35;;;;;;;15.13;4.10;;;;;;;;;;6148096;23;20164;-89
2021/03/22 22:14:39;;;;;;;11.57;3.87;;;;;;;;;;6149178;23;20181;-90
2021/03/22 22:17:44;;;;;;;17.97;4.43;;;;;;;;;;6159846;23;20215;-89
2021/03/22 22:20:49;;;;;;;17.37;4.50;;;;;;;;;;6165797;23;20196;-90
2021/03/22 22:23:54;;;;;;;15.73;4.03;;;;;;;;;;6165256;23;20173;-90
2021/03/22 22:26:59;;;;;;;19.73;4.23;;;;;;;;;;6182428;23;20176;-89
2021/03/22 22:30:04;;;;;;;25.57;5.33;;;;;;;;;;6164115;23;20168;-89
2021/03/22 22:33:09;;;;;;;19.53;4.83;;;;;;;;;;6164413;23;20204;-89
2021/03/22 22:36:14;;;;;;;18.27;4.70;;;;;;;;;;6164968;23;20177;-90
2021/03/22 22:39:22;;;;;;;32.43;7.63;;;;;;;;;;6165733;23;20180;-89
2021/03/22 22:42:28;;;;;;;32.30;8.00;;;;;;;;;;6182025;23;20181;-90
2021/03/22 22:45:32;;;;;;;17.47;5.17;;;;;;;;;;6164448;23;20171;-90
2021/03/22 22:48:36;;;;;;;19.20;4.50;;;;;;;;;;6163523;23;20192;-90
2021/03/22 22:51:41;;;;;;;21.03;4.90;;;;;;;;;;6165143;23;20240;-90
2021/03/22 22:54:45;;;;;;;18.57;4.93;;;;;;;;;;6164858;23;20192;-90
2021/03/22 22:57:51;;;;;;;19.63;5.57;;;;;;;;;;6165159;23;20212;-88
2021/03/22 23:00:55;;;;;;;18.07;5.10;;;;;;;;;;6166010;23;20525;-90
2021/03/22 23:04:00;;;;;;;15.40;4.70;;;;;;;;;;6164708;23;20220;-89
2021/03/22 23:07:05;;;;;;;17.23;4.57;;;;;;;;;;6162686;23;20292;-89
2021/03/22 23:10:10;;;;;;;25.10;4.40;;;;;;;;;;6162987;23;20181;-89
2021/03/22 23:13:15;;;;;;;14.93;4.30;;;;;;;;;;6163054;23;20672;-91
2021/03/22 23:16:21;;;;;;;19.57;4.53;;;;;;;;;;6162585;23;20247;-90
2021/03/22 23:19:25;;;;;;;25.47;4.60;;;;;;;;;;6146398;23;20196;-90
2021/03/22 23:22:30;;;;;;;19.40;5.40;;;;;;;;;;6145065;23;20167;-90
2021/03/22 23:25:35;;;;;;;17.57;4.47;;;;;;;;;;6146339;23;20156;-89
2021/03/22 23:28:43;;;;;;;15.93;4.40;;;;;;;;;;6147098;23;20169;-89
2021/03/22 23:31:47;;;;;;;16.20;4.47;;;;;;;;;;6147178;23;20181;-88
2021/03/22 23:34:52;;;;;;;14.73;4.33;;;;;;;;;;6147003;23;20291;-90
2021/03/22 23:37:56;;;;;;;21.50;5.17;;;;;;;;;;6147802;23;20176;-89
2021/03/22 23:41:01;;;;;;;18.93;5.00;;;;;;;;;;6146163;23;20184;-90
2021/03/22 23:44:06;;;;;;;19.37;4.57;;;;;;;;;;6146409;23;20173;-90
2021/03/22 23:47:11;;;;;;;14.47;4.07;;;;;;;;;;6147007;23;20235;-89
2021/03/22 23:50:20;;;;;;;18.77;4.73;;;;;;;;;;6148189;23;20188;-90
2021/03/22 23:53:24;;;;;;;12.63;4.50;;;;;;;;;;6147529;23;20547;-89
2021/03/22 23:56:29;;;;;;;15.67;4.13;;;;;;;;;;6164907;23;20599;-89
2021/03/22 23:59:35;;;;;;;15.77;4.63;;;;;;;;;;6147066;23;20191;-88
